Time;durP1;ratioP1;P1;durP2;ratioP2;P2;SDS_P1;SDS_P2;PMS_P1;PMS_P2;Temp;Humidity;BMP_temperature;BMP_pressure;BME280_temperature;BME280_humidity;BME280_pressure;Samples;Min_cycle;Max_cycle;Signal;HPM_P1;HPM_P2
2023/04/25 00:01:39;;;;;;;8.85;5.78;;;20.80;43.40;;;;;;6209140;23;20020;-74
2023/04/25 00:04:05;;;;;;;8.88;5.90;;;20.80;43.40;;;;;;6182297;23;20012;-75
2023/04/25 00:06:32;;;;;;;9.75;6.43;;;20.80;43.40;;;;;;6209898;23;20009;-75
2023/04/25 00:08:58;;;;;;;12.73;6.28;;;20.70;43.40;;;;;;6182575;23;20028;-75
2023/04/25 00:11:24;;;;;;;10.98;5.93;;;20.70;43.50;;;;;;6209272;23;20199;-74
2023/04/25 00:13:50;;;;;;;9.25;6.50;;;20.80;43.60;;;;;;6209196;23;20584;-75
2023/04/25 00:16:17;;;;;;;13.63;6.00;;;20.70;43.50;;;;;;6209042;23;20009;-75
2023/04/25 00:18:43;;;;;;;9.40;6.38;;;20.70;43.80;;;;;;6209893;23;20016;-75
2023/04/25 00:21:09;;;;;;;11.55;6.50;;;20.70;43.70;;;;;;6154938;23;20020;-75
2023/04/25 00:23:38;;;;;;;9.75;6.85;;;20.70;43.90;;;;;;6179364;23;20028;-75
2023/04/25 00:26:04;;;;;;;9.80;6.50;;;20.70;44.10;;;;;;6152572;23;20372;-75
2023/04/25 00:28:30;;;;;;;11.07;6.82;;;20.70;44.60;;;;;;6179063;23;20021;-75
2023/04/25 00:30:56;;;;;;;10.15;6.85;;;20.70;44.20;;;;;;6172312;23;20463;-75
2023/04/25 00:33:22;;;;;;;10.98;6.93;;;20.70;44.10;;;;;;6209497;23;20012;-75
2023/04/25 00:35:48;;;;;;;9.10;6.50;;;20.70;44.10;;;;;;6182449;23;20025;-75
2023/04/25 00:38:14;;;;;;;9.55;6.80;;;20.70;44.30;;;;;;6208942;23;20529;-75
2023/04/25 00:40:43;;;;;;;12.45;6.60;;;20.70;44.20;;;;;;6209154;23;20016;-75
2023/04/25 00:43:09;;;;;;;11.00;6.97;;;20.70;44.20;;;;;;6206938;23;20039;-75
2023/04/25 00:45:39;;;;;;;9.18;6.80;;;20.70;44.20;;;;;;6209510;23;20004;-76
2023/04/25 00:48:05;;;;;;;9.38;6.53;;;20.70;44.30;;;;;;6209177;23;20129;-76
2023/04/25 00:50:33;;;;;;;11.52;6.53;;;20.70;44.50;;;;;;6232475;23;20028;-75
2023/04/25 00:53:00;;;;;;;12.63;6.88;;;20.70;44.50;;;;;;6206971;23;20475;-74
2023/04/25 00:55:26;;;;;;;8.98;6.95;;;20.70;44.60;;;;;;6232564;23;20024;-75
2023/04/25 00:57:52;;;;;;;8.43;6.28;;;20.70;44.70;;;;;;6207465;23;20407;-75
2023/04/25 01:00:20;;;;;;;8.00;6.05;;;20.70;44.70;;;;;;6232634;23;20115;-74
2023/04/25 01:02:47;;;;;;;8.73;6.13;;;20.60;44.70;;;;;;6209009;23;20039;-74
2023/04/25 01:05:13;;;;;;;8.32;6.22;;;20.70;44.60;;;;;;6209029;23;20468;-75
2023/04/25 01:07:40;;;;;;;7.35;5.28;;;20.70;44.90;;;;;;6207102;23;20490;-75
2023/04/25 01:10:07;;;;;;;10.65;6.60;;;20.60;44.70;;;;;;6208833;23;20359;-75
2023/04/25 01:12:33;;;;;;;7.60;5.90;;;20.70;44.90;;;;;;6232929;23;20008;-75
2023/04/25 01:15:00;;;;;;;10.13;6.20;;;20.70;44.90;;;;;;6232329;23;20031;-75
2023/04/25 01:17:27;;;;;;;8.75;6.68;;;20.60;45.00;;;;;;6232289;23;20071;-76
2023/04/25 01:19:53;;;;;;;8.68;5.65;;;20.70;45.00;;;;;;6194496;23;20021;-76
2023/04/25 01:22:19;;;;;;;8.45;5.97;;;20.60;45.00;;;;;;6182272;23;20016;-75
2023/04/25 01:24:46;;;;;;;9.15;6.20;;;20.60;45.20;;;;;;6233149;23;20071;-74
2023/04/25 01:27:13;;;;;;;7.68;6.10;;;20.60;45.30;;;;;;6206868;23;20418;-75
2023/04/25 01:29:39;;;;;;;9.93;6.43;;;20.60;45.20;;;;;;6231486;23;20534;-75
2023/04/25 01:32:06;;;;;;;9.05;6.25;;;20.60;45.30;;;;;;6206728;23;20372;-75
2023/04/25 01:34:32;;;;;;;9.63;6.47;;;20.50;45.40;;;;;;6232429;23;20119;-74
2023/04/25 01:37:03;;;;;;;12.38;6.90;;;20.60;45.50;;;;;;6206647;23;20024;-75
2023/04/25 01:39:29;;;;;;;8.00;5.60;;;20.50;45.50;;;;;;6232684;23;20361;-74
2023/04/25 01:41:55;;;;;;;7.80;6.20;;;20.50;45.50;;;;;;6206831;23;20104;-75
2023/04/25 01:44:22;;;;;;;10.02;6.50;;;20.50;45.70;;;;;;6182355;23;20020;-74
2023/04/25 01:46:47;;;;;;;10.30;6.40;;;20.50;45.70;;;;;;6208607;23;20027;-74
2023/04/25 01:49:13;;;;;;;7.05;5.72;;;20.50;45.70;;;;;;6232237;23;20364;-75
2023/04/25 01:51:41;;;;;;;11.00;6.70;;;20.50;45.70;;;;;;6234494;23;20069;-76
2023/04/25 01:54:09;;;;;;;8.15;6.40;;;20.40;45.80;;;;;;6234586;23;20043;-77
2023/04/25 01:56:37;;;;;;;9.65;6.90;;;20.40;45.80;;;;;;6210890;23;20013;-77
2023/04/25 01:59:05;;;;;;;10.65;6.78;;;20.50;45.40;;;;;;6209346;23;20028;-77
2023/04/25 02:02:03;;;;;;;11.00;6.75;;;20.40;45.10;;;;;;6194232;23;20372;-77
2023/04/25 02:04:31;;;;;;;12.23;7.85;;;20.30;45.00;;;;;;6234716;23;20370;-77
2023/04/25 02:06:58;;;;;;;11.77;7.15;;;20.30;44.90;;;;;;6234537;23;20192;-77
2023/04/25 02:09:31;;;;;;;12.90;8.07;;;20.30;45.10;;;;;;6209896;23;20039;-77
2023/04/25 02:11:58;;;;;;;10.38;7.47;;;20.20;44.90;;;;;;6210483;23;20133;-77
2023/04/25 02:14:34;;;;;;;9.70;7.40;;;20.20;44.90;;;;;;6208706;23;20471;-77
2023/04/25 02:17:21;;;;;;;12.45;7.90;;;20.10;44.80;;;;;;6097906;23;20504;-77
2023/04/25 02:19:47;;;;;;;10.93;7.05;;;20.10;44.80;;;;;;6118279;23;20072;-77
2023/04/25 02:22:13;;;;;;;9.40;7.63;;;20.00;44.70;;;;;;6117698;23;20024;-77
2023/04/25 02:24:39;;;;;;;10.85;7.72;;;20.00;44.70;;;;;;6119123;23;20022;-77
2023/04/25 02:27:05;;;;;;;10.13;7.57;;;19.90;44.80;;;;;;6094015;23;20045;-77
2023/04/25 02:29:31;;;;;;;13.95;8.20;;;19.90;44.70;;;;;;6118174;23;20026;-77
2023/04/25 02:31:57;;;;;;;12.52;7.78;;;19.90;44.80;;;;;;6118007;23;20393;-77
2023/04/25 02:34:25;;;;;;;12.85;7.57;;;19.90;44.80;;;;;;6117606;23;20101;-77
2023/04/25 02:36:51;;;;;;;11.32;7.80;;;19.80;44.70;;;;;;6118636;23;20013;-77
2023/04/25 02:39:18;;;;;;;11.60;8.18;;;19.80;44.80;;;;;;6118047;23;20457;-77
2023/04/25 02:41:44;;;;;;;12.60;7.75;;;19.80;45.00;;;;;;6118042;23;20405;-76
2023/04/25 02:44:10;;;;;;;10.88;7.93;;;19.80;45.10;;;;;;6118034;23;20049;-76
2023/04/25 02:46:37;;;;;;;12.85;7.38;;;19.70;45.20;;;;;;6117877;23;20034;-77
2023/04/25 02:49:03;;;;;;;12.05;7.93;;;19.80;45.30;;;;;;6118028;23;20053;-76
2023/04/25 02:51:30;;;;;;;14.30;7.97;;;19.70;45.20;;;;;;6093972;23;20006;-76
2023/04/25 02:53:56;;;;;;;13.10;8.27;;;19.70;45.20;;;;;;6135317;23;20043;-76
2023/04/25 02:56:22;;;;;;;12.05;8.20;;;19.70;45.30;;;;;;6196716;23;20032;-76
2023/04/25 02:58:48;;;;;;;11.63;8.35;;;19.70;45.40;;;;;;6234109;23;20052;-76
2023/04/25 03:01:14;;;;;;;15.35;8.30;;;19.70;45.50;;;;;;6183519;23;20419;-77
2023/04/25 03:03:40;;;;;;;10.68;7.95;;;19.70;45.40;;;;;;6209889;23;20016;-76
2023/04/25 03:06:06;;;;;;;13.05;8.50;;;19.70;45.50;;;;;;6208672;23;20026;-76
2023/04/25 03:08:34;;;;;;;13.75;8.25;;;19.60;45.50;;;;;;6234048;23;20020;-76
2023/04/25 03:11:01;;;;;;;13.38;8.10;;;19.70;45.50;;;;;;6233635;23;20503;-75
2023/04/25 03:13:29;;;;;;;13.23;7.53;;;19.70;45.50;;;;;;6233051;23;20020;-76
2023/04/25 03:15:56;;;;;;;13.63;8.35;;;19.70;45.60;;;;;;6208312;23;20147;-76
2023/04/25 03:18:22;;;;;;;12.35;7.63;;;19.70;45.80;;;;;;6234106;23;20017;-76
2023/04/25 03:20:47;;;;;;;11.38;7.85;;;19.70;45.80;;;;;;6208402;23;20100;-76
2023/04/25 03:23:14;;;;;;;13.20;8.02;;;19.70;45.90;;;;;;6233275;23;20023;-77
2023/04/25 03:25:42;;;;;;;12.00;7.72;;;19.70;45.90;;;;;;6233548;23;20141;-76
2023/04/25 03:28:08;;;;;;;11.63;7.85;;;19.60;45.90;;;;;;6207481;23;20021;-76
2023/04/25 03:30:34;;;;;;;14.57;7.55;;;19.70;46.10;;;;;;6208481;23;20027;-76
2023/04/25 03:33:00;;;;;;;12.73;7.55;;;19.70;46.10;;;;;;6233094;23;20021;-77
2023/04/25 03:35:26;;;;;;;11.13;6.95;;;19.70;46.30;;;;;;6210070;23;20027;-76
2023/04/25 03:37:52;;;;;;;12.07;6.95;;;19.70;46.30;;;;;;6233293;23;20028;-77
2023/04/25 03:40:24;;;;;;;13.05;6.78;;;19.70;46.40;;;;;;6183201;23;20083;-80
2023/04/25 03:43:06;;;;;;;11.80;7.35;;;19.70;46.40;;;;;;6233335;23;20020;-77
2023/04/25 03:45:33;;;;;;;14.85;7.05;;;19.70;46.40;;;;;;6234416;23;20362;-77
2023/04/25 03:47:59;;;;;;;9.10;6.20;;;19.70;46.40;;;;;;6209541;23;20016;-77
2023/04/25 03:50:28;;;;;;;12.70;6.88;;;19.70;46.60;;;;;;6183443;23;20099;-77
2023/04/25 03:52:54;;;;;;;10.68;6.75;;;19.70;46.70;;;;;;6233150;23;20078;-77
2023/04/25 03:55:21;;;;;;;10.00;6.82;;;19.70;46.70;;;;;;6232992;23;20017;-78
2023/04/25 03:57:47;;;;;;;11.90;7.22;;;19.70;46.90;;;;;;6208670;23;20063;-77
2023/04/25 04:00:14;;;;;;;10.90;6.82;;;19.70;46.90;;;;;;6232667;23;20070;-78
2023/04/25 04:02:39;;;;;;;14.05;7.13;;;19.70;47.10;;;;;;6207862;23;20041;-79
2023/04/25 04:05:07;;;;;;;11.43;6.93;;;19.70;47.00;;;;;;6157343;23;20024;-78
2023/04/25 04:07:39;;;;;;;11.55;6.80;;;19.70;47.20;;;;;;6207098;23;20017;-82
2023/04/25 04:10:07;;;;;;;10.48;6.95;;;19.70;47.30;;;;;;6201603;23;20016;-83
2023/04/25 04:12:36;;;;;;;16.13;7.25;;;19.70;47.30;;;;;;6182132;23;20055;-84
2023/04/25 04:15:04;;;;;;;19.35;7.63;;;19.70;47.40;;;;;;6232831;23;20048;-84
2023/04/25 04:17:30;;;;;;;13.55;7.22;;;19.70;47.40;;;;;;6207172;23;20503;-80
2023/04/25 04:19:57;;;;;;;12.52;7.50;;;19.70;47.40;;;;;;6232804;23;20107;-80
2023/04/25 04:22:24;;;;;;;12.60;7.18;;;19.80;47.60;;;;;;6209206;23;20024;-86
2023/04/25 04:24:51;;;;;;;11.73;7.38;;;19.90;47.70;;;;;;6234530;23;20360;-88
2023/04/25 04:27:23;;;;;;;11.73;7.28;;;19.90;47.60;;;;;;6209756;23;20021;-86
2023/04/25 04:30:08;;;;;;;11.90;7.05;;;20.00;47.60;;;;;;6210135;23;20479;-82
2023/04/25 04:32:38;;;;;;;12.13;7.07;;;20.20;47.50;;;;;;6207635;23;20036;-85
2023/04/25 04:35:06;;;;;;;10.88;6.75;;;20.30;47.10;;;;;;6183494;23;20024;-82
2023/04/25 04:37:33;;;;;;;14.77;7.00;;;20.40;47.00;;;;;;6233668;23;20021;-82
2023/04/25 04:40:05;;;;;;;10.10;6.88;;;20.60;47.50;;;;;;6160023;23;20020;-81
2023/04/25 04:42:45;;;;;;;11.60;7.18;;;20.70;46.60;;;;;;6183434;23;20008;-81
2023/04/25 04:45:40;;;;;;;8.18;6.45;;;20.90;46.40;;;;;;6117255;23;20029;-80
2023/04/25 04:48:28;;;;;;;10.20;6.22;;;21.10;46.40;;;;;;6092437;23;20101;-76
2023/04/25 04:51:14;;;;;;;12.40;6.55;;;21.20;46.40;;;;;;6096011;23;20386;-78
2023/04/25 04:53:45;;;;;;;11.32;6.78;;;21.30;46.30;;;;;;6116349;23;20113;-77
2023/04/25 04:56:26;;;;;;;12.23;6.53;;;21.40;46.10;;;;;;6117351;23;20125;-77
2023/04/25 04:59:15;;;;;;;14.32;6.53;;;21.60;46.20;;;;;;6003390;23;20031;-77
2023/04/25 05:01:58;;;;;;;10.55;6.78;;;21.70;45.90;;;;;;6003602;23;20027;-77
2023/04/25 05:04:44;;;;;;;14.43;6.07;;;21.80;45.80;;;;;;6000957;23;20030;-77
2023/04/25 05:07:34;;;;;;;9.13;5.88;;;22.00;45.70;;;;;;5993452;23;20488;-76
2023/04/25 05:10:29;;;;;;;12.40;6.00;;;22.10;45.40;;;;;;6000628;23;20019;-77
2023/04/25 05:13:18;;;;;;;9.27;5.80;;;22.30;45.10;;;;;;5996927;23;20019;-77
2023/04/25 05:16:03;;;;;;;12.70;6.07;;;22.40;44.90;;;;;;6000625;23;20042;-76
2023/04/25 05:18:55;;;;;;;10.35;5.72;;;22.50;44.40;;;;;;5999212;23;20019;-77
2023/04/25 05:21:43;;;;;;;9.15;6.15;;;22.70;44.20;;;;;;6011123;23;20007;-77
2023/04/25 05:24:21;;;;;;;9.85;5.93;;;22.80;44.00;;;;;;6000457;23;20388;-77
2023/04/25 05:27:17;;;;;;;12.53;6.00;;;22.90;43.70;;;;;;6068449;23;20053;-77
2023/04/25 05:30:19;;;;;;;11.07;6.22;;;23.10;43.40;;;;;;6057314;23;20362;-77
2023/04/25 05:33:11;;;;;;;10.57;6.22;;;23.10;43.30;;;;;;6027348;23;20071;-77
2023/04/25 05:35:38;;;;;;;11.65;6.78;;;23.20;43.30;;;;;;6045952;23;20028;-77
2023/04/25 05:38:04;;;;;;;9.55;6.55;;;23.20;43.30;;;;;;6096300;23;20088;-77
2023/04/25 05:40:49;;;;;;;9.77;5.93;;;23.20;43.10;;;;;;6145243;23;20104;-76
2023/04/25 05:43:33;;;;;;;7.72;5.50;;;23.30;42.90;;;;;;6144954;23;20018;-77
2023/04/25 05:46:10;;;;;;;7.55;5.50;;;23.50;42.70;;;;;;6120878;23;20060;-77
2023/04/25 05:48:45;;;;;;;10.23;5.63;;;23.60;42.60;;;;;;6121549;23;20017;-76
2023/04/25 05:51:37;;;;;;;11.50;6.10;;;23.70;42.40;;;;;;6139472;23;20021;-76
2023/04/25 05:54:21;;;;;;;7.78;5.18;;;23.90;42.00;;;;;;6144926;23;20028;-77
2023/04/25 05:56:47;;;;;;;17.75;6.25;;;24.00;41.90;;;;;;6120943;23;20025;-77
2023/04/25 05:59:13;;;;;;;10.65;5.82;;;24.20;42.10;;;;;;6120549;23;20178;-72
2023/04/25 06:01:40;;;;;;;6.72;4.78;;;24.50;41.50;;;;;;6120209;23;20032;-73
2023/04/25 06:04:06;;;;;;;7.53;4.97;;;24.80;41.30;;;;;;6120725;23;20014;-82
2023/04/25 06:06:33;;;;;;;7.90;5.03;;;25.10;41.20;;;;;;6122062;23;20017;-81
2023/04/25 06:08:59;;;;;;;10.30;4.95;;;25.40;40.80;;;;;;6125514;23;20033;-85
2023/04/25 06:11:25;;;;;;;8.80;5.10;;;25.60;40.30;;;;;;6233104;23;20384;-84
2023/04/25 06:13:51;;;;;;;8.50;4.72;;;25.80;40.10;;;;;;6206895;23;20070;-85
2023/04/25 06:16:17;;;;;;;8.93;4.50;;;26.00;40.00;;;;;;6157594;23;20012;-87
2023/04/25 06:18:43;;;;;;;8.07;5.00;;;26.10;39.80;;;;;;6207422;23;20019;-83
2023/04/25 06:21:09;;;;;;;7.47;5.07;;;26.30;39.50;;;;;;6232209;23;20020;-82
2023/04/25 06:23:35;;;;;;;10.13;5.07;;;26.40;39.30;;;;;;6232075;23;20020;-83
2023/04/25 06:26:07;;;;;;;16.13;5.30;;;26.60;39.20;;;;;;6230959;23;20028;-83
2023/04/25 06:28:35;;;;;;;7.40;5.22;;;26.80;39.00;;;;;;6181967;23;20020;-83
2023/04/25 06:31:01;;;;;;;6.93;4.45;;;26.90;38.90;;;;;;6231700;23;20405;-83
2023/04/25 06:33:30;;;;;;;7.75;4.85;;;27.00;39.40;;;;;;6232247;23;20012;-83
2023/04/25 06:35:56;;;;;;;8.68;5.18;;;27.10;39.10;;;;;;6232763;23;20023;-84
2023/04/25 06:38:25;;;;;;;6.50;4.63;;;27.30;39.20;;;;;;6234426;23;20491;-82
2023/04/25 06:40:52;;;;;;;6.75;4.57;;;27.40;38.90;;;;;;6234409;23;20013;-83
2023/04/25 06:43:19;;;;;;;9.07;4.50;;;27.50;38.30;;;;;;6234070;23;20019;-83
2023/04/25 06:46:03;;;;;;;14.45;4.38;;;27.60;38.20;;;;;;6208309;23;20019;-84
2023/04/25 06:48:32;;;;;;;10.50;4.25;;;27.70;38.20;;;;;;6235488;23;20008;-82
2023/04/25 06:50:58;;;;;;;7.47;4.30;;;27.80;38.20;;;;;;6209046;23;20052;-82
2023/04/25 06:53:25;;;;;;;7.03;3.83;;;27.90;38.20;;;;;;6233744;23;20025;-84
2023/04/25 06:55:57;;;;;;;5.55;3.80;;;27.90;37.80;;;;;;6195989;23;20652;-82
2023/04/25 06:58:27;;;;;;;7.78;4.50;;;28.00;38.00;;;;;;6184999;23;20423;-83
2023/04/25 07:01:09;;;;;;;7.72;3.92;;;28.10;38.20;;;;;;6208356;23;20032;-83
2023/04/25 07:03:37;;;;;;;6.20;3.60;;;28.20;37.80;;;;;;6234444;23;20122;-79
2023/04/25 07:06:07;;;;;;;7.93;3.90;;;28.30;38.70;;;;;;6233587;23;20032;-76
2023/04/25 07:08:33;;;;;;;6.78;3.88;;;28.30;38.90;;;;;;6233850;23;20431;-77
2023/04/25 07:10:59;;;;;;;9.57;4.38;;;28.30;38.40;;;;;;6234395;23;20024;-78
2023/04/25 07:13:25;;;;;;;8.25;4.70;;;28.30;39.10;;;;;;6183675;23;20067;-85
2023/04/25 07:15:51;;;;;;;6.95;3.90;;;28.40;37.90;;;;;;6210073;23;20012;-81
2023/04/25 07:18:19;;;;;;;6.32;3.55;;;28.40;38.00;;;;;;6234619;23;20024;-82
2023/04/25 07:20:46;;;;;;;6.88;3.53;;;28.50;39.90;;;;;;6204285;23;20024;-82
2023/04/25 07:23:12;;;;;;;4.80;3.22;;;28.50;37.70;;;;;;6196248;23;20016;-83
2023/04/25 07:25:39;;;;;;;6.00;3.25;;;28.50;37.10;;;;;;6234197;23;20099;-81
2023/04/25 07:28:05;;;;;;;5.78;3.45;;;28.50;36.40;;;;;;6234655;23;20005;-90
2023/04/25 07:30:31;;;;;;;6.03;3.70;;;28.40;36.10;;;;;;6237478;23;20075;-84
2023/04/25 07:32:57;;;;;;;6.15;3.90;;;28.50;36.90;;;;;;6184435;23;20020;-82
2023/04/25 07:35:24;;;;;;;5.43;3.80;;;28.50;36.50;;;;;;6207528;23;20419;-75
2023/04/25 07:37:50;;;;;;;9.88;4.50;;;28.50;36.50;;;;;;6209568;23;20021;-76
2023/04/25 07:40:18;;;;;;;5.70;4.05;;;28.40;36.50;;;;;;6209494;23;20123;-76
2023/04/25 07:42:49;;;;;;;10.68;3.78;;;28.40;37.80;;;;;;6233495;23;20012;-75
2023/04/25 07:45:19;;;;;;;7.50;4.03;;;28.30;38.40;;;;;;6209775;23;20025;-76
2023/04/25 07:47:46;;;;;;;5.30;3.53;;;28.20;37.50;;;;;;6234557;23;20016;-76
2023/04/25 07:50:12;;;;;;;6.82;3.80;;;28.10;37.10;;;;;;6193917;23;20419;-76
2023/04/25 07:52:38;;;;;;;4.72;3.72;;;28.00;37.00;;;;;;6189291;23;20025;-75
2023/04/25 07:55:16;;;;;;;8.10;3.60;;;27.80;37.20;;;;;;6235406;23;20427;-76
2023/04/25 07:57:55;;;;;;;4.85;3.60;;;27.70;37.80;;;;;;6235593;23;20008;-76
2023/04/25 08:00:21;;;;;;;8.20;3.47;;;27.70;38.40;;;;;;6211036;23;20356;-76
2023/04/25 08:02:54;;;;;;;7.30;3.90;;;27.60;38.10;;;;;;6235376;23;20056;-76
2023/04/25 08:05:21;;;;;;;6.22;3.42;;;27.50;38.20;;;;;;6235512;23;20363;-76
2023/04/25 08:07:52;;;;;;;6.78;3.50;;;27.40;38.30;;;;;;6234818;23;20483;-76
2023/04/25 08:10:18;;;;;;;5.43;3.83;;;27.40;38.50;;;;;;6233880;23;20442;-77
2023/04/25 08:12:44;;;;;;;10.73;3.38;;;27.30;38.30;;;;;;6182760;23;20009;-77
2023/04/25 08:15:10;;;;;;;7.10;3.25;;;27.20;38.60;;;;;;6232476;23;20020;-78
2023/04/25 08:17:39;;;;;;;4.03;3.28;;;27.10;38.30;;;;;;6232597;23;20028;-77
2023/04/25 08:20:06;;;;;;;7.65;3.08;;;27.10;38.30;;;;;;6232343;23;20567;-78
2023/04/25 08:22:34;;;;;;;7.53;3.40;;;27.00;38.30;;;;;;6232507;23;20029;-78
2023/04/25 08:25:21;;;;;;;5.97;3.00;;;26.90;38.50;;;;;;6116636;23;20544;-78
2023/04/25 08:27:47;;;;;;;4.65;2.70;;;26.80;38.10;;;;;;6092479;23;20485;-78
2023/04/25 08:30:15;;;;;;;3.60;3.25;;;26.70;38.40;;;;;;6115903;23;20084;-78
2023/04/25 08:32:42;;;;;;;4.90;2.80;;;26.60;38.50;;;;;;6092099;23;20049;-79
2023/04/25 08:35:28;;;;;;;5.63;3.30;;;26.60;38.70;;;;;;5964610;23;20025;-78
2023/04/25 08:37:55;;;;;;;3.70;2.72;;;26.50;39.20;;;;;;5968588;23;20049;-79
2023/04/25 08:40:26;;;;;;;4.95;3.10;;;26.50;39.10;;;;;;5945750;23;20130;-79
2023/04/25 08:42:58;;;;;;;4.28;2.75;;;26.50;39.20;;;;;;5944174;23;20021;-80
2023/04/25 08:45:27;;;;;;;6.75;2.83;;;26.40;39.00;;;;;;5923041;24;20821;-75
2023/04/25 08:47:54;;;;;;;6.25;3.80;;;26.30;39.00;;;;;;5945460;24;20100;-74
2023/04/25 08:50:23;;;;;;;4.18;2.90;;;26.30;39.10;;;;;;5945201;24;20351;-75
2023/04/25 08:52:52;;;;;;;8.13;3.80;;;26.20;39.50;;;;;;5945591;24;20084;-76
2023/04/25 08:55:20;;;;;;;6.82;3.80;;;26.10;39.30;;;;;;5921874;24;20027;-76
2023/04/25 08:57:49;;;;;;;7.07;3.63;;;26.00;39.40;;;;;;5945670;24;20027;-75
2023/04/25 09:00:16;;;;;;;6.90;3.67;;;26.00;39.40;;;;;;5944914;24;20450;-75
2023/04/25 09:02:46;;;;;;;3.95;3.42;;;26.00;39.70;;;;;;6016671;23;20066;-74
2023/04/25 09:05:13;;;;;;;10.63;3.90;;;25.80;39.50;;;;;;6013335;23;20025;-73
2023/04/25 09:07:40;;;;;;;7.03;3.67;;;25.80;39.50;;;;;;6061744;23;20022;-74
2023/04/25 09:10:07;;;;;;;7.78;4.18;;;25.80;39.90;;;;;;6060380;23;20093;-74
2023/04/25 09:12:37;;;;;;;9.13;4.47;;;25.70;39.40;;;;;;6107875;23;20100;-74
2023/04/25 09:15:05;;;;;;;5.05;3.60;;;25.70;39.40;;;;;;6231215;23;20052;-73
2023/04/25 09:18:04;;;;;;;6.95;4.50;;;25.60;39.50;;;;;;6184203;23;20047;-74
2023/04/25 09:20:44;;;;;;;7.07;4.00;;;25.50;39.20;;;;;;6234521;23;20020;-75
2023/04/25 09:23:10;;;;;;;4.90;3.80;;;25.50;39.20;;;;;;6235424;23;20016;-74
2023/04/25 09:25:42;;;;;;;6.13;3.90;;;25.50;39.60;;;;;;6210603;23;20016;-75
2023/04/25 09:28:09;;;;;;;5.90;3.90;;;25.40;39.10;;;;;;6209242;23;20009;-76
2023/04/25 09:30:36;;;;;;;8.60;3.42;;;25.30;39.00;;;;;;6209754;23;20052;-75
2023/04/25 09:33:30;;;;;;;6.50;4.40;;;25.30;39.20;;;;;;6202375;23;20028;-75
2023/04/25 09:36:17;;;;;;;8.68;4.00;;;25.30;39.00;;;;;;6234993;23;20087;-75
2023/04/25 09:39:15;;;;;;;6.28;3.58;;;25.30;39.40;;;;;;6175040;23;20025;-75
2023/04/25 09:41:45;;;;;;;5.13;2.90;;;25.20;39.00;;;;;;6200084;23;20020;-75
2023/04/25 09:44:13;;;;;;;8.52;3.55;;;25.20;38.70;;;;;;6235312;23;20472;-74
2023/04/25 09:46:41;;;;;;;6.18;3.10;;;25.20;38.80;;;;;;6234733;23;20013;-87
2023/04/25 09:49:16;;;;;;;9.55;2.90;;;25.10;38.60;;;;;;6235147;23;20016;-84
2023/04/25 09:51:59;;;;;;;3.97;2.40;;;25.10;37.50;;;;;;6235847;23;20012;-86
2023/04/25 09:54:30;;;;;;;6.20;2.17;;;24.80;36.80;;;;;;6207651;23;20460;-82
2023/04/25 09:57:15;;;;;;;3.42;1.90;;;24.70;37.10;;;;;;6231741;23;20026;-85
2023/04/25 09:59:53;;;;;;;6.55;2.60;;;24.70;37.30;;;;;;6181946;23;20411;-85
2023/04/25 10:02:24;;;;;;;5.20;2.55;;;24.70;37.50;;;;;;6232019;23;20456;-85
2023/04/25 10:04:55;;;;;;;5.87;2.40;;;24.70;37.60;;;;;;6207232;23;20024;-83
2023/04/25 10:07:29;;;;;;;2.70;2.50;;;24.70;37.70;;;;;;6230276;23;20016;-84
2023/04/25 10:10:02;;;;;;;6.85;2.92;;;24.60;37.50;;;;;;6181587;23;20017;-82
2023/04/25 10:12:33;;;;;;;5.07;3.00;;;24.60;37.60;;;;;;6209915;23;20012;-83
2023/04/25 10:15:00;;;;;;;7.45;3.22;;;24.60;37.70;;;;;;6210001;23;20112;-83
2023/04/25 10:17:29;;;;;;;4.68;2.80;;;24.60;37.60;;;;;;6210220;23;20112;-80
2023/04/25 10:19:56;;;;;;;4.10;2.38;;;24.60;37.50;;;;;;6210145;23;20021;-79
2023/04/25 10:22:42;;;;;;;4.72;2.42;;;24.60;37.30;;;;;;6210374;23;20028;-80
2023/04/25 10:25:08;;;;;;;5.55;2.53;;;24.60;37.30;;;;;;6208693;23;20337;-75
2023/04/25 10:27:35;;;;;;;4.20;2.45;;;24.50;37.40;;;;;;6210490;23;20386;-80
2023/04/25 10:30:12;;;;;;;4.50;3.00;;;24.50;37.70;;;;;;6211116;23;20491;-89
2023/04/25 10:32:38;;;;;;;5.95;2.58;;;24.50;37.80;;;;;;6184543;23;20029;-78
2023/04/25 10:35:15;;;;;;;2.65;2.30;;;24.50;37.40;;;;;;6210681;23;20483;-80
2023/04/25 10:38:03;;;;;;;3.42;2.45;;;24.50;37.40;;;;;;6211337;23;20095;-80
2023/04/25 10:40:30;;;;;;;4.03;2.40;;;24.40;37.50;;;;;;6212057;23;20031;-81
2023/04/25 10:43:16;;;;;;;4.88;2.70;;;24.40;37.10;;;;;;6211378;23;20103;-79
2023/04/25 10:45:52;;;;;;;6.28;3.10;;;24.40;37.10;;;;;;6184451;23;20001;-84
2023/04/25 10:48:28;;;;;;;5.90;2.55;;;24.40;37.30;;;;;;6209632;23;20462;-80
2023/04/25 10:51:11;;;;;;;5.00;2.80;;;24.40;37.30;;;;;;6208864;23;20047;-76
2023/04/25 10:53:37;;;;;;;4.00;2.47;;;24.30;37.30;;;;;;6210310;23;20099;-76
2023/04/25 10:56:25;;;;;;;4.50;2.60;;;24.30;37.60;;;;;;6210398;23;20017;-76
2023/04/25 10:58:51;;;;;;;4.53;2.40;;;24.30;37.80;;;;;;6207771;23;20472;-77
2023/04/25 11:01:21;;;;;;;5.63;2.50;;;24.20;37.60;;;;;;6209809;23;20016;-78
2023/04/25 11:03:50;;;;;;;2.83;2.17;;;24.20;37.40;;;;;;6210239;23;20012;-77
2023/04/25 11:06:51;;;;;;;2.55;2.35;;;24.20;37.60;;;;;;6210118;23;20016;-78
2023/04/25 11:09:17;;;;;;;3.63;2.25;;;24.20;37.70;;;;;;6210721;23;20068;-79
2023/04/25 11:11:54;;;;;;;3.28;1.90;;;24.10;37.70;;;;;;6209077;23;20036;-80
2023/04/25 11:14:21;;;;;;;2.80;2.05;;;24.10;37.70;;;;;;6210331;23;20021;-79
2023/04/25 11:16:52;;;;;;;3.03;2.13;;;24.10;37.30;;;;;;6183629;23;20032;-78
2023/04/25 11:19:20;;;;;;;6.55;2.38;;;24.10;38.00;;;;;;6210643;23;20044;-80
2023/04/25 11:21:46;;;;;;;2.17;1.98;;;24.00;38.40;;;;;;6212650;23;20466;-79
2023/04/25 11:24:12;;;;;;;2.78;2.00;;;24.00;38.20;;;;;;6210362;23;20100;-82
2023/04/25 11:26:38;;;;;;;5.13;2.22;;;24.00;38.10;;;;;;6209033;23;20051;-81
2023/04/25 11:29:04;;;;;;;3.35;1.88;;;24.00;38.10;;;;;;6183249;23;20535;-79
2023/04/25 11:31:30;;;;;;;2.75;2.28;;;24.00;38.40;;;;;;6211000;23;20052;-80
2023/04/25 11:33:59;;;;;;;3.00;2.20;;;24.00;39.20;;;;;;6210581;23;20448;-81
2023/04/25 11:36:26;;;;;;;4.05;2.35;;;24.00;39.50;;;;;;6212110;23;20004;-82
2023/04/25 11:38:53;;;;;;;3.42;2.20;;;24.00;39.40;;;;;;6209733;23;20554;-79
2023/04/25 11:41:22;;;;;;;5.45;2.55;;;23.90;39.50;;;;;;6208826;23;20013;-80
2023/04/25 11:43:49;;;;;;;2.08;1.95;;;23.90;39.50;;;;;;6209755;23;20016;-80
2023/04/25 11:46:16;;;;;;;5.20;2.58;;;23.90;39.30;;;;;;6210377;23;20012;-79
2023/04/25 11:48:42;;;;;;;5.38;2.13;;;23.90;39.40;;;;;;6210912;23;20070;-80
2023/04/25 11:51:08;;;;;;;4.53;1.90;;;23.90;39.50;;;;;;6208814;23;20103;-80
2023/04/25 11:53:36;;;;;;;2.00;1.73;;;23.90;39.30;;;;;;6210544;23;20441;-79
2023/04/25 11:56:08;;;;;;;4.30;2.22;;;23.90;39.40;;;;;;6210348;23;20099;-80
2023/04/25 11:58:57;;;;;;;3.42;2.20;;;23.80;39.60;;;;;;6208658;23;20021;-79
2023/04/25 12:01:32;;;;;;;3.60;2.50;;;23.90;39.90;;;;;;6210557;23;20020;-81
2023/04/25 12:03:58;;;;;;;6.53;2.43;;;23.80;39.50;;;;;;6210411;23;20017;-81
2023/04/25 12:06:28;;;;;;;4.63;2.40;;;23.80;40.10;;;;;;6211809;23;20008;-81
2023/04/25 12:09:04;;;;;;;3.50;2.50;;;23.80;40.20;;;;;;6210709;23;20085;-81
2023/04/25 12:11:42;;;;;;;4.75;2.70;;;23.80;40.50;;;;;;6209279;23;20103;-81
2023/04/25 12:14:08;;;;;;;2.97;2.65;;;23.80;40.50;;;;;;6210435;23;20025;-81
2023/04/25 12:16:45;;;;;;;4.53;2.38;;;23.80;40.40;;;;;;6210931;23;20076;-80
2023/04/25 12:19:15;;;;;;;3.00;2.17;;;23.70;40.30;;;;;;6210273;23;20039;-81
2023/04/25 12:21:41;;;;;;;2.30;1.92;;;23.70;40.20;;;;;;6210870;23;20063;-81
2023/04/25 12:24:25;;;;;;;2.85;2.42;;;23.70;39.40;;;;;;6210472;23;20012;-81
2023/04/25 12:27:05;;;;;;;6.50;2.45;;;23.70;39.40;;;;;;6210758;23;20028;-80
2023/04/25 12:29:33;;;;;;;4.88;2.47;;;23.70;39.30;;;;;;6208795;23;20078;-80
2023/04/25 12:32:01;;;;;;;2.30;2.10;;;23.70;39.50;;;;;;6183834;23;20056;-80
2023/04/25 12:34:27;;;;;;;2.20;2.00;;;23.70;39.80;;;;;;6210410;23;20047;-80
2023/04/25 12:36:54;;;;;;;3.15;2.00;;;23.60;39.40;;;;;;6210859;23;20013;-80
2023/04/25 12:39:27;;;;;;;4.07;2.08;;;23.70;39.70;;;;;;6158607;23;20413;-81
2023/04/25 12:41:56;;;;;;;4.70;2.33;;;23.60;39.70;;;;;;6210471;23;20104;-81
2023/04/25 12:44:22;;;;;;;3.92;2.65;;;23.70;40.10;;;;;;6158262;23;20468;-81
2023/04/25 12:46:48;;;;;;;3.10;2.80;;;23.60;40.20;;;;;;6208806;23;20027;-81
2023/04/25 12:49:14;;;;;;;3.20;2.70;;;23.60;40.30;;;;;;6209016;23;20024;-82
2023/04/25 12:51:41;;;;;;;3.72;2.60;;;23.60;39.90;;;;;;6210101;23;20091;-79
2023/04/25 12:54:08;;;;;;;3.70;2.85;;;23.60;40.20;;;;;;6209288;23;20021;-78
2023/04/25 12:56:35;;;;;;;4.65;2.72;;;23.60;40.40;;;;;;6212282;23;20047;-78
2023/04/25 12:59:02;;;;;;;6.55;3.35;;;23.50;40.50;;;;;;6209654;23;20021;-78
2023/04/25 13:01:29;;;;;;;4.68;3.08;;;23.50;40.60;;;;;;6211537;23;20039;-80